North Tarrytown, New York
Current Conditions -  °F | °C
As of 12:56 AM on Wednesday 22 Oct 2014 (Local Time) from KHPN Reporting Station
Broken Clouds Broken Clouds  
Wind Chill: 55°   Ceiling: 5000
Heat Index: 55°   Visibility: 10mi
Dew Point: 51°   Wind: 8mph
Humidity: 86%   Direction: 40°NE
Pressure: 29.9"   Gusts: NA
Location:  41.0851°N, 73.846°W
Report Text: KHPN 220456Z 04007KT 10SM SCT030 BKN050 13/11 A2990 RMK AO2 SLP124 T01280106 401830083
Loading
Personal Weather Stations






























Interactive Weather Map
Tropical Storm Tracking
New forecast layout! Learn more

10-Day Weather Forecast

Advertisements
Track Severe Weather on mobile